sensor_id;sensor_type;location;lat;lon;timestamp;P1;durP1;ratioP1;P2;durP2;ratioP2
24443;SDS011;13346;50.984;5.822;2024-01-10T00:01:55;6.07;;;3.20;;
24443;SDS011;13346;50.984;5.822;2024-01-10T00:04:22;3.80;;;3.37;;
24443;SDS011;13346;50.984;5.822;2024-01-10T00:06:49;8.23;;;6.03;;
24443;SDS011;13346;50.984;5.822;2024-01-10T00:09:16;1.73;;;1.40;;
24443;SDS011;13346;50.984;5.822;2024-01-10T00:11:44;3.73;;;2.97;;
24443;SDS011;13346;50.984;5.822;2024-01-10T00:14:12;7.87;;;2.30;;
24443;SDS011;13346;50.984;5.822;2024-01-10T00:16:40;5.80;;;4.27;;
24443;SDS011;13346;50.984;5.822;2024-01-10T00:19:07;2.00;;;1.93;;
24443;SDS011;13346;50.984;5.822;2024-01-10T00:21:34;1.87;;;1.77;;
24443;SDS011;13346;50.984;5.822;2024-01-10T00:24:01;6.63;;;2.33;;
24443;SDS011;13346;50.984;5.822;2024-01-10T00:26:29;1.97;;;1.87;;
24443;SDS011;13346;50.984;5.822;2024-01-10T00:28:56;2.23;;;2.13;;
24443;SDS011;13346;50.984;5.822;2024-01-10T00:31:25;1.67;;;1.57;;
24443;SDS011;13346;50.984;5.822;2024-01-10T00:33:52;8.03;;;4.03;;
24443;SDS011;13346;50.984;5.822;2024-01-10T00:36:19;3.47;;;3.00;;
24443;SDS011;13346;50.984;5.822;2024-01-10T00:38:47;1.50;;;1.40;;
24443;SDS011;13346;50.984;5.822;2024-01-10T00:41:14;2.63;;;2.10;;
24443;SDS011;13346;50.984;5.822;2024-01-10T00:43:41;2.93;;;2.63;;
24443;SDS011;13346;50.984;5.822;2024-01-10T00:46:08;3.53;;;1.97;;
24443;SDS011;13346;50.984;5.822;2024-01-10T00:48:37;2.70;;;2.23;;
24443;SDS011;13346;50.984;5.822;2024-01-10T00:51:04;3.13;;;2.50;;
24443;SDS011;13346;50.984;5.822;2024-01-10T00:53:33;3.13;;;2.07;;
24443;SDS011;13346;50.984;5.822;2024-01-10T00:56:01;3.17;;;2.30;;
24443;SDS011;13346;50.984;5.822;2024-01-10T00:58:28;5.93;;;1.90;;
24443;SDS011;13346;50.984;5.822;2024-01-10T01:00:55;4.10;;;2.43;;
24443;SDS011;13346;50.984;5.822;2024-01-10T01:03:23;2.47;;;2.33;;
24443;SDS011;13346;50.984;5.822;2024-01-10T01:05:51;4.23;;;3.00;;
24443;SDS011;13346;50.984;5.822;2024-01-10T01:08:18;1.80;;;1.70;;
24443;SDS011;13346;50.984;5.822;2024-01-10T01:10:46;3.50;;;2.80;;
24443;SDS011;13346;50.984;5.822;2024-01-10T01:13:13;2.50;;;2.27;;
24443;SDS011;13346;50.984;5.822;2024-01-10T01:15:40;3.20;;;2.40;;
24443;SDS011;13346;50.984;5.822;2024-01-10T01:18:07;4.33;;;4.03;;
24443;SDS011;13346;50.984;5.822;2024-01-10T01:20:38;3.73;;;3.23;;
24443;SDS011;13346;50.984;5.822;2024-01-10T01:23:06;2.10;;;1.93;;
24443;SDS011;13346;50.984;5.822;2024-01-10T01:25:33;5.07;;;2.97;;
24443;SDS011;13346;50.984;5.822;2024-01-10T01:28:01;9.30;;;6.57;;
24443;SDS011;13346;50.984;5.822;2024-01-10T01:30:28;10.17;;;4.27;;
24443;SDS011;13346;50.984;5.822;2024-01-10T01:32:55;2.77;;;2.53;;
24443;SDS011;13346;50.984;5.822;2024-01-10T01:35:22;5.83;;;3.07;;
24443;SDS011;13346;50.984;5.822;2024-01-10T01:37:49;0.47;;;0.47;;
24443;SDS011;13346;50.984;5.822;2024-01-10T01:40:19;3.27;;;2.90;;
24443;SDS011;13346;50.984;5.822;2024-01-10T01:42:47;6.27;;;3.80;;
24443;SDS011;13346;50.984;5.822;2024-01-10T01:45:14;3.33;;;1.87;;
24443;SDS011;13346;50.984;5.822;2024-01-10T01:47:42;2.33;;;2.13;;
24443;SDS011;13346;50.984;5.822;2024-01-10T01:50:09;4.37;;;3.70;;
24443;SDS011;13346;50.984;5.822;2024-01-10T01:52:37;2.80;;;2.50;;
24443;SDS011;13346;50.984;5.822;2024-01-10T01:55:04;3.17;;;2.93;;
24443;SDS011;13346;50.984;5.822;2024-01-10T01:57:35;2.63;;;2.40;;
24443;SDS011;13346;50.984;5.822;2024-01-10T02:00:04;1.20;;;1.13;;
24443;SDS011;13346;50.984;5.822;2024-01-10T02:02:32;3.57;;;3.27;;
24443;SDS011;13346;50.984;5.822;2024-01-10T02:05:00;2.47;;;2.37;;
24443;SDS011;13346;50.984;5.822;2024-01-10T02:07:29;4.27;;;3.83;;
24443;SDS011;13346;50.984;5.822;2024-01-10T02:09:56;5.23;;;1.63;;
24443;SDS011;13346;50.984;5.822;2024-01-10T02:12:24;3.63;;;2.70;;
24443;SDS011;13346;50.984;5.822;2024-01-10T02:14:52;3.00;;;2.30;;
24443;SDS011;13346;50.984;5.822;2024-01-10T02:17:20;3.37;;;2.90;;
24443;SDS011;13346;50.984;5.822;2024-01-10T02:19:47;1.77;;;1.67;;
24443;SDS011;13346;50.984;5.822;2024-01-10T02:22:14;4.70;;;3.60;;
24443;SDS011;13346;50.984;5.822;2024-01-10T02:24:41;1.80;;;1.40;;
24443;SDS011;13346;50.984;5.822;2024-01-10T02:27:10;2.40;;;2.20;;
24443;SDS011;13346;50.984;5.822;2024-01-10T02:29:38;6.00;;;4.40;;
24443;SDS011;13346;50.984;5.822;2024-01-10T02:32:05;7.47;;;5.17;;
24443;SDS011;13346;50.984;5.822;2024-01-10T02:34:33;5.30;;;3.23;;
24443;SDS011;13346;50.984;5.822;2024-01-10T02:37:00;3.63;;;3.30;;
24443;SDS011;13346;50.984;5.822;2024-01-10T02:39:27;4.07;;;3.37;;
24443;SDS011;13346;50.984;5.822;2024-01-10T02:41:54;4.40;;;3.70;;
24443;SDS011;13346;50.984;5.822;2024-01-10T02:44:23;5.20;;;3.83;;
24443;SDS011;13346;50.984;5.822;2024-01-10T02:46:50;4.03;;;2.83;;
24443;SDS011;13346;50.984;5.822;2024-01-10T02:49:17;5.73;;;4.63;;
24443;SDS011;13346;50.984;5.822;2024-01-10T02:51:44;6.73;;;4.80;;
24443;SDS011;13346;50.984;5.822;2024-01-10T02:54:12;5.40;;;4.03;;
24443;SDS011;13346;50.984;5.822;2024-01-10T02:56:39;3.17;;;2.57;;
24443;SDS011;13346;50.984;5.822;2024-01-10T02:59:06;8.50;;;5.53;;
24443;SDS011;13346;50.984;5.822;2024-01-10T03:01:35;6.60;;;4.77;;
24443;SDS011;13346;50.984;5.822;2024-01-10T03:04:02;5.37;;;4.90;;
24443;SDS011;13346;50.984;5.822;2024-01-10T03:06:29;8.97;;;5.67;;
24443;SDS011;13346;50.984;5.822;2024-01-10T03:08:56;5.23;;;4.50;;
24443;SDS011;13346;50.984;5.822;2024-01-10T03:11:24;6.03;;;5.20;;
24443;SDS011;13346;50.984;5.822;2024-01-10T03:13:52;12.70;;;6.10;;
24443;SDS011;13346;50.984;5.822;2024-01-10T03:16:27;7.47;;;5.00;;
24443;SDS011;13346;50.984;5.822;2024-01-10T03:18:56;10.93;;;4.63;;
24443;SDS011;13346;50.984;5.822;2024-01-10T03:21:23;7.73;;;5.30;;
24443;SDS011;13346;50.984;5.822;2024-01-10T03:23:52;6.50;;;3.07;;
24443;SDS011;13346;50.984;5.822;2024-01-10T03:26:20;3.57;;;3.27;;
24443;SDS011;13346;50.984;5.822;2024-01-10T03:28:47;4.00;;;3.70;;
24443;SDS011;13346;50.984;5.822;2024-01-10T03:31:14;3.17;;;2.97;;
24443;SDS011;13346;50.984;5.822;2024-01-10T03:33:42;7.67;;;5.13;;
24443;SDS011;13346;50.984;5.822;2024-01-10T03:36:11;2.63;;;2.00;;
24443;SDS011;13346;50.984;5.822;2024-01-10T03:38:39;2.93;;;2.20;;
24443;SDS011;13346;50.984;5.822;2024-01-10T03:41:07;8.30;;;4.77;;
24443;SDS011;13346;50.984;5.822;2024-01-10T03:43:38;9.57;;;4.37;;
24443;SDS011;13346;50.984;5.822;2024-01-10T03:46:06;8.27;;;3.63;;
24443;SDS011;13346;50.984;5.822;2024-01-10T03:48:33;1.00;;;1.00;;
24443;SDS011;13346;50.984;5.822;2024-01-10T03:51:00;3.00;;;2.20;;
24443;SDS011;13346;50.984;5.822;2024-01-10T03:53:29;3.20;;;2.57;;
24443;SDS011;13346;50.984;5.822;2024-01-10T03:55:57;3.00;;;1.20;;
24443;SDS011;13346;50.984;5.822;2024-01-10T03:58:24;2.37;;;2.17;;
24443;SDS011;13346;50.984;5.822;2024-01-10T04:00:51;6.23;;;3.90;;
24443;SDS011;13346;50.984;5.822;2024-01-10T04:03:18;2.33;;;2.20;;
24443;SDS011;13346;50.984;5.822;2024-01-10T04:05:46;2.17;;;1.70;;
24443;SDS011;13346;50.984;5.822;2024-01-10T04:08:13;1.37;;;1.37;;
24443;SDS011;13346;50.984;5.822;2024-01-10T04:10:42;2.20;;;1.30;;
24443;SDS011;13346;50.984;5.822;2024-01-10T04:13:09;3.20;;;3.00;;
24443;SDS011;13346;50.984;5.822;2024-01-10T04:15:36;6.63;;;3.83;;
24443;SDS011;13346;50.984;5.822;2024-01-10T04:18:04;15.70;;;4.40;;
24443;SDS011;13346;50.984;5.822;2024-01-10T04:20:32;2.00;;;1.90;;
24443;SDS011;13346;50.984;5.822;2024-01-10T04:22:59;6.83;;;3.40;;
24443;SDS011;13346;50.984;5.822;2024-01-10T04:25:27;3.87;;;3.13;;
24443;SDS011;13346;50.984;5.822;2024-01-10T04:27:55;3.60;;;3.20;;
24443;SDS011;13346;50.984;5.822;2024-01-10T04:30:23;6.30;;;4.53;;
24443;SDS011;13346;50.984;5.822;2024-01-10T04:32:50;6.27;;;3.97;;
24443;SDS011;13346;50.984;5.822;2024-01-10T04:35:17;4.73;;;4.37;;
24443;SDS011;13346;50.984;5.822;2024-01-10T04:37:45;5.07;;;4.37;;
24443;SDS011;13346;50.984;5.822;2024-01-10T04:40:12;7.73;;;4.80;;
24443;SDS011;13346;50.984;5.822;2024-01-10T04:42:39;3.27;;;2.87;;
24443;SDS011;13346;50.984;5.822;2024-01-10T04:45:08;1.97;;;1.70;;
24443;SDS011;13346;50.984;5.822;2024-01-10T04:47:36;1.50;;;1.50;;
24443;SDS011;13346;50.984;5.822;2024-01-10T04:50:03;1.73;;;1.63;;
24443;SDS011;13346;50.984;5.822;2024-01-10T04:52:31;5.10;;;2.83;;
24443;SDS011;13346;50.984;5.822;2024-01-10T04:54:58;3.27;;;2.23;;
24443;SDS011;13346;50.984;5.822;2024-01-10T04:57:25;2.80;;;2.40;;
24443;SDS011;13346;50.984;5.822;2024-01-10T04:59:52;2.83;;;2.57;;
24443;SDS011;13346;50.984;5.822;2024-01-10T05:02:21;6.10;;;2.93;;
24443;SDS011;13346;50.984;5.822;2024-01-10T05:04:48;11.30;;;5.87;;
24443;SDS011;13346;50.984;5.822;2024-01-10T05:07:16;4.63;;;3.73;;
24443;SDS011;13346;50.984;5.822;2024-01-10T05:09:43;7.73;;;5.03;;
24443;SDS011;13346;50.984;5.822;2024-01-10T05:12:10;6.33;;;5.03;;
24443;SDS011;13346;50.984;5.822;2024-01-10T05:14:37;7.77;;;5.10;;
24443;SDS011;13346;50.984;5.822;2024-01-10T05:17:06;8.27;;;5.57;;
24443;SDS011;13346;50.984;5.822;2024-01-10T05:19:35;7.77;;;4.73;;
24443;SDS011;13346;50.984;5.822;2024-01-10T05:22:02;5.30;;;3.67;;
24443;SDS011;13346;50.984;5.822;2024-01-10T05:24:29;4.97;;;3.83;;
24443;SDS011;13346;50.984;5.822;2024-01-10T05:26:57;6.83;;;4.60;;
24443;SDS011;13346;50.984;5.822;2024-01-10T05:29:24;7.33;;;4.80;;
24443;SDS011;13346;50.984;5.822;2024-01-10T05:31:51;8.53;;;5.37;;
24443;SDS011;13346;50.984;5.822;2024-01-10T05:34:18;6.80;;;4.30;;
24443;SDS011;13346;50.984;5.822;2024-01-10T05:36:47;7.47;;;5.40;;
24443;SDS011;13346;50.984;5.822;2024-01-10T05:39:14;5.93;;;3.87;;
24443;SDS011;13346;50.984;5.822;2024-01-10T05:41:43;8.23;;;5.50;;
24443;SDS011;13346;50.984;5.822;2024-01-10T05:44:11;9.03;;;5.10;;
24443;SDS011;13346;50.984;5.822;2024-01-10T05:46:38;5.87;;;4.87;;
24443;SDS011;13346;50.984;5.822;2024-01-10T05:49:06;12.53;;;5.00;;
24443;SDS011;13346;50.984;5.822;2024-01-10T05:51:33;7.30;;;5.03;;
24443;SDS011;13346;50.984;5.822;2024-01-10T05:54:02;5.67;;;4.67;;
24443;SDS011;13346;50.984;5.822;2024-01-10T05:56:29;9.80;;;5.63;;
24443;SDS011;13346;50.984;5.822;2024-01-10T05:58:56;9.10;;;5.57;;
24443;SDS011;13346;50.984;5.822;2024-01-10T06:01:24;9.20;;;5.97;;
24443;SDS011;13346;50.984;5.822;2024-01-10T06:03:51;7.03;;;5.53;;
24443;SDS011;13346;50.984;5.822;2024-01-10T06:06:18;12.23;;;6.80;;
24443;SDS011;13346;50.984;5.822;2024-01-10T06:08:46;6.80;;;4.77;;
24443;SDS011;13346;50.984;5.822;2024-01-10T06:11:14;9.20;;;4.60;;
24443;SDS011;13346;50.984;5.822;2024-01-10T06:13:42;10.80;;;6.10;;
24443;SDS011;13346;50.984;5.822;2024-01-10T06:16:09;7.33;;;4.93;;
24443;SDS011;13346;50.984;5.822;2024-01-10T06:18:36;13.27;;;4.67;;
24443;SDS011;13346;50.984;5.822;2024-01-10T06:21:03;8.90;;;5.70;;
24443;SDS011;13346;50.984;5.822;2024-01-10T06:23:31;7.97;;;4.60;;
24443;SDS011;13346;50.984;5.822;2024-01-10T06:25:58;4.17;;;3.80;;
24443;SDS011;13346;50.984;5.822;2024-01-10T06:28:27;2.43;;;2.23;;
24443;SDS011;13346;50.984;5.822;2024-01-10T06:30:54;5.23;;;3.03;;
24443;SDS011;13346;50.984;5.822;2024-01-10T06:33:21;8.27;;;3.77;;
24443;SDS011;13346;50.984;5.822;2024-01-10T06:35:49;6.53;;;4.13;;
24443;SDS011;13346;50.984;5.822;2024-01-10T06:38:16;5.50;;;2.87;;
24443;SDS011;13346;50.984;5.822;2024-01-10T06:40:45;3.13;;;2.73;;
24443;SDS011;13346;50.984;5.822;2024-01-10T06:43:12;5.03;;;4.03;;
24443;SDS011;13346;50.984;5.822;2024-01-10T06:45:41;7.00;;;1.43;;
24443;SDS011;13346;50.984;5.822;2024-01-10T06:48:08;8.17;;;4.00;;
24443;SDS011;13346;50.984;5.822;2024-01-10T06:50:36;5.73;;;3.40;;
24443;SDS011;13346;50.984;5.822;2024-01-10T06:53:03;6.13;;;4.63;;
24443;SDS011;13346;50.984;5.822;2024-01-10T06:55:31;6.33;;;4.27;;
24443;SDS011;13346;50.984;5.822;2024-01-10T06:57:58;4.73;;;3.33;;
24443;SDS011;13346;50.984;5.822;2024-01-10T07:00:25;7.53;;;4.20;;
24443;SDS011;13346;50.984;5.822;2024-01-10T07:02:54;8.40;;;5.03;;
24443;SDS011;13346;50.984;5.822;2024-01-10T07:05:21;3.83;;;3.33;;
24443;SDS011;13346;50.984;5.822;2024-01-10T07:07:48;8.53;;;4.17;;
24443;SDS011;13346;50.984;5.822;2024-01-10T07:10:16;8.40;;;4.70;;
24443;SDS011;13346;50.984;5.822;2024-01-10T07:12:43;7.70;;;5.80;;
24443;SDS011;13346;50.984;5.822;2024-01-10T07:15:10;7.40;;;5.47;;
24443;SDS011;13346;50.984;5.822;2024-01-10T07:17:38;5.50;;;4.13;;
24443;SDS011;13346;50.984;5.822;2024-01-10T07:20:08;9.53;;;5.93;;
24443;SDS011;13346;50.984;5.822;2024-01-10T07:22:37;4.13;;;3.73;;
24443;SDS011;13346;50.984;5.822;2024-01-10T07:25:06;9.33;;;5.73;;
24443;SDS011;13346;50.984;5.822;2024-01-10T07:27:34;14.77;;;5.33;;
24443;SDS011;13346;50.984;5.822;2024-01-10T07:30:03;11.60;;;6.87;;
24443;SDS011;13346;50.984;5.822;2024-01-10T07:32:36;7.40;;;4.60;;
24443;SDS011;13346;50.984;5.822;2024-01-10T07:35:04;3.37;;;2.57;;
24443;SDS011;13346;50.984;5.822;2024-01-10T07:37:36;6.13;;;4.67;;
24443;SDS011;13346;50.984;5.822;2024-01-10T07:40:03;8.07;;;4.27;;
24443;SDS011;13346;50.984;5.822;2024-01-10T07:42:32;9.07;;;5.27;;
24443;SDS011;13346;50.984;5.822;2024-01-10T07:44:59;6.10;;;4.80;;
24443;SDS011;13346;50.984;5.822;2024-01-10T07:47:29;7.23;;;5.63;;
24443;SDS011;13346;50.984;5.822;2024-01-10T07:49:57;6.73;;;6.13;;
24443;SDS011;13346;50.984;5.822;2024-01-10T07:52:24;6.77;;;5.67;;
24443;SDS011;13346;50.984;5.822;2024-01-10T07:54:53;8.23;;;5.33;;
24443;SDS011;13346;50.984;5.822;2024-01-10T07:57:20;13.20;;;6.33;;
24443;SDS011;13346;50.984;5.822;2024-01-10T07:59:48;8.67;;;4.83;;
24443;SDS011;13346;50.984;5.822;2024-01-10T08:02:15;10.57;;;5.80;;
24443;SDS011;13346;50.984;5.822;2024-01-10T08:04:42;9.33;;;5.53;;
24443;SDS011;13346;50.984;5.822;2024-01-10T08:07:10;12.20;;;6.77;;
24443;SDS011;13346;50.984;5.822;2024-01-10T08:09:37;6.30;;;3.67;;
24443;SDS011;13346;50.984;5.822;2024-01-10T08:12:06;8.73;;;5.70;;
24443;SDS011;13346;50.984;5.822;2024-01-10T08:14:33;7.73;;;5.53;;
24443;SDS011;13346;50.984;5.822;2024-01-10T08:17:03;4.33;;;3.17;;
24443;SDS011;13346;50.984;5.822;2024-01-10T08:19:31;2.60;;;1.63;;
24443;SDS011;13346;50.984;5.822;2024-01-10T08:21:59;6.40;;;4.40;;
24443;SDS011;13346;50.984;5.822;2024-01-10T08:24:26;7.27;;;5.20;;
24443;SDS011;13346;50.984;5.822;2024-01-10T08:26:54;6.67;;;4.97;;
24443;SDS011;13346;50.984;5.822;2024-01-10T08:29:22;6.30;;;3.27;;
24443;SDS011;13346;50.984;5.822;2024-01-10T08:31:55;4.53;;;3.47;;
24443;SDS011;13346;50.984;5.822;2024-01-10T08:34:23;5.07;;;3.87;;
24443;SDS011;13346;50.984;5.822;2024-01-10T08:36:51;6.87;;;5.50;;
24443;SDS011;13346;50.984;5.822;2024-01-10T08:39:18;4.53;;;3.27;;
24443;SDS011;13346;50.984;5.822;2024-01-10T08:41:47;12.30;;;4.90;;
24443;SDS011;13346;50.984;5.822;2024-01-10T08:44:14;1.57;;;1.00;;
24443;SDS011;13346;50.984;5.822;2024-01-10T08:46:43;2.33;;;2.17;;
24443;SDS011;13346;50.984;5.822;2024-01-10T08:49:10;11.80;;;6.23;;
24443;SDS011;13346;50.984;5.822;2024-01-10T08:51:38;5.20;;;4.23;;
24443;SDS011;13346;50.984;5.822;2024-01-10T08:54:06;3.90;;;3.60;;
24443;SDS011;13346;50.984;5.822;2024-01-10T08:56:34;7.57;;;4.00;;
24443;SDS011;13346;50.984;5.822;2024-01-10T08:59:01;3.40;;;3.03;;
24443;SDS011;13346;50.984;5.822;2024-01-10T09:01:29;12.50;;;5.97;;
24443;SDS011;13346;50.984;5.822;2024-01-10T09:03:58;4.90;;;4.40;;
24443;SDS011;13346;50.984;5.822;2024-01-10T09:06:25;16.57;;;6.87;;
24443;SDS011;13346;50.984;5.822;2024-01-10T09:08:52;4.67;;;4.23;;
24443;SDS011;13346;50.984;5.822;2024-01-10T09:11:19;6.17;;;4.37;;
24443;SDS011;13346;50.984;5.822;2024-01-10T09:13:46;8.00;;;3.67;;
24443;SDS011;13346;50.984;5.822;2024-01-10T09:16:14;2.47;;;2.27;;
24443;SDS011;13346;50.984;5.822;2024-01-10T09:18:43;3.53;;;3.17;;
24443;SDS011;13346;50.984;5.822;2024-01-10T09:21:12;14.30;;;5.57;;
24443;SDS011;13346;50.984;5.822;2024-01-10T09:23:40;11.83;;;5.03;;
24443;SDS011;13346;50.984;5.822;2024-01-10T09:26:08;3.30;;;3.10;;
24443;SDS011;13346;50.984;5.822;2024-01-10T09:28:35;9.77;;;6.87;;
24443;SDS011;13346;50.984;5.822;2024-01-10T09:31:03;3.23;;;2.93;;
24443;SDS011;13346;50.984;5.822;2024-01-10T09:33:32;13.10;;;6.43;;
24443;SDS011;13346;50.984;5.822;2024-01-10T09:36:00;6.90;;;5.13;;
24443;SDS011;13346;50.984;5.822;2024-01-10T09:38:30;7.67;;;6.77;;
24443;SDS011;13346;50.984;5.822;2024-01-10T09:41:01;5.57;;;4.90;;
24443;SDS011;13346;50.984;5.822;2024-01-10T09:43:30;7.87;;;5.40;;
24443;SDS011;13346;50.984;5.822;2024-01-10T09:45:58;6.77;;;4.37;;
24443;SDS011;13346;50.984;5.822;2024-01-10T09:48:28;10.27;;;7.23;;
24443;SDS011;13346;50.984;5.822;2024-01-10T09:50:56;11.07;;;8.63;;
24443;SDS011;13346;50.984;5.822;2024-01-10T09:53:24;6.43;;;5.23;;
24443;SDS011;13346;50.984;5.822;2024-01-10T09:55:53;9.83;;;7.80;;
24443;SDS011;13346;50.984;5.822;2024-01-10T09:58:25;13.87;;;8.33;;
24443;SDS011;13346;50.984;5.822;2024-01-10T10:00:52;10.13;;;5.30;;
24443;SDS011;13346;50.984;5.822;2024-01-10T10:03:19;10.83;;;5.77;;
24443;SDS011;13346;50.984;5.822;2024-01-10T10:05:47;7.93;;;4.80;;
24443;SDS011;13346;50.984;5.822;2024-01-10T10:08:14;4.27;;;2.97;;
24443;SDS011;13346;50.984;5.822;2024-01-10T10:10:48;7.87;;;5.33;;
24443;SDS011;13346;50.984;5.822;2024-01-10T10:13:25;5.20;;;4.07;;
24443;SDS011;13346;50.984;5.822;2024-01-10T10:15:59;12.27;;;7.73;;
24443;SDS011;13346;50.984;5.822;2024-01-10T10:18:27;4.50;;;3.03;;
24443;SDS011;13346;50.984;5.822;2024-01-10T10:21:06;5.90;;;3.47;;
24443;SDS011;13346;50.984;5.822;2024-01-10T10:23:34;7.63;;;5.20;;
24443;SDS011;13346;50.984;5.822;2024-01-10T10:26:12;13.90;;;6.77;;
24443;SDS011;13346;50.984;5.822;2024-01-10T10:28:46;3.43;;;3.13;;
24443;SDS011;13346;50.984;5.822;2024-01-10T10:31:14;6.13;;;2.53;;
24443;SDS011;13346;50.984;5.822;2024-01-10T10:33:43;3.77;;;2.87;;
24443;SDS011;13346;50.984;5.822;2024-01-10T10:36:12;5.40;;;4.37;;
24443;SDS011;13346;50.984;5.822;2024-01-10T10:38:40;11.00;;;6.90;;
24443;SDS011;13346;50.984;5.822;2024-01-10T10:41:08;9.07;;;6.20;;
24443;SDS011;13346;50.984;5.822;2024-01-10T10:43:36;6.67;;;5.53;;
24443;SDS011;13346;50.984;5.822;2024-01-10T10:46:07;2.87;;;2.67;;
24443;SDS011;13346;50.984;5.822;2024-01-10T10:48:37;9.43;;;6.70;;
24443;SDS011;13346;50.984;5.822;2024-01-10T10:51:05;8.63;;;6.93;;
24443;SDS011;13346;50.984;5.822;2024-01-10T10:53:34;6.43;;;4.37;;
24443;SDS011;13346;50.984;5.822;2024-01-10T10:56:03;11.20;;;5.40;;
24443;SDS011;13346;50.984;5.822;2024-01-10T10:58:33;8.67;;;5.50;;
24443;SDS011;13346;50.984;5.822;2024-01-10T11:01:02;11.03;;;7.03;;
24443;SDS011;13346;50.984;5.822;2024-01-10T11:03:34;4.07;;;3.67;;
24443;SDS011;13346;50.984;5.822;2024-01-10T11:06:03;5.93;;;4.43;;
24443;SDS011;13346;50.984;5.822;2024-01-10T11:08:33;10.83;;;6.33;;
24443;SDS011;13346;50.984;5.822;2024-01-10T11:11:02;5.63;;;2.63;;
24443;SDS011;13346;50.984;5.822;2024-01-10T11:13:49;3.23;;;2.20;;
24443;SDS011;13346;50.984;5.822;2024-01-10T11:16:49;11.20;;;7.37;;
24443;SDS011;13346;50.984;5.822;2024-01-10T11:22:52;3.97;;;2.67;;
24443;SDS011;13346;50.984;5.822;2024-01-10T11:25:34;9.20;;;7.33;;
24443;SDS011;13346;50.984;5.822;2024-01-10T11:28:02;9.13;;;7.27;;
24443;SDS011;13346;50.984;5.822;2024-01-10T11:30:33;13.73;;;7.83;;
24443;SDS011;13346;50.984;5.822;2024-01-10T11:33:14;12.07;;;6.87;;
24443;SDS011;13346;50.984;5.822;2024-01-10T11:38:43;7.57;;;6.53;;
24443;SDS011;13346;50.984;5.822;2024-01-10T11:41:20;7.00;;;5.60;;
24443;SDS011;13346;50.984;5.822;2024-01-10T11:46:54;13.67;;;8.20;;
24443;SDS011;13346;50.984;5.822;2024-01-10T11:49:21;9.97;;;6.57;;
24443;SDS011;13346;50.984;5.822;2024-01-10T11:51:53;10.30;;;6.67;;
24443;SDS011;13346;50.984;5.822;2024-01-10T11:54:37;10.30;;;5.57;;
24443;SDS011;13346;50.984;5.822;2024-01-10T11:57:11;9.17;;;5.63;;
24443;SDS011;13346;50.984;5.822;2024-01-10T11:59:40;10.10;;;7.90;;
24443;SDS011;13346;50.984;5.822;2024-01-10T12:02:10;15.43;;;8.87;;
24443;SDS011;13346;50.984;5.822;2024-01-10T12:04:38;11.90;;;8.87;;
24443;SDS011;13346;50.984;5.822;2024-01-10T12:07:08;6.10;;;3.47;;
24443;SDS011;13346;50.984;5.822;2024-01-10T12:09:35;15.87;;;8.67;;
24443;SDS011;13346;50.984;5.822;2024-01-10T12:12:03;12.23;;;6.20;;
24443;SDS011;13346;50.984;5.822;2024-01-10T12:14:34;8.87;;;5.93;;
24443;SDS011;13346;50.984;5.822;2024-01-10T12:17:02;4.93;;;4.23;;
24443;SDS011;13346;50.984;5.822;2024-01-10T12:19:30;6.33;;;5.13;;
24443;SDS011;13346;50.984;5.822;2024-01-10T12:21:57;11.93;;;8.70;;
24443;SDS011;13346;50.984;5.822;2024-01-10T12:24:28;10.60;;;6.40;;
24443;SDS011;13346;50.984;5.822;2024-01-10T12:26:55;8.57;;;5.23;;
24443;SDS011;13346;50.984;5.822;2024-01-10T12:29:23;9.73;;;5.07;;
24443;SDS011;13346;50.984;5.822;2024-01-10T12:31:50;14.00;;;7.20;;
24443;SDS011;13346;50.984;5.822;2024-01-10T12:34:18;10.43;;;7.17;;
24443;SDS011;13346;50.984;5.822;2024-01-10T12:36:47;8.23;;;7.37;;
24443;SDS011;13346;50.984;5.822;2024-01-10T12:39:14;12.67;;;6.50;;
24443;SDS011;13346;50.984;5.822;2024-01-10T12:41:43;14.83;;;9.33;;
24443;SDS011;13346;50.984;5.822;2024-01-10T12:44:11;9.60;;;7.03;;
24443;SDS011;13346;50.984;5.822;2024-01-10T12:46:49;7.97;;;5.07;;
24443;SDS011;13346;50.984;5.822;2024-01-10T12:49:18;10.67;;;6.87;;
24443;SDS011;13346;50.984;5.822;2024-01-10T12:51:46;5.53;;;5.03;;
24443;SDS011;13346;50.984;5.822;2024-01-10T12:54:14;8.93;;;5.27;;
24443;SDS011;13346;50.984;5.822;2024-01-10T12:56:44;9.80;;;6.77;;
24443;SDS011;13346;50.984;5.822;2024-01-10T12:59:12;6.77;;;5.23;;
24443;SDS011;13346;50.984;5.822;2024-01-10T13:01:40;9.20;;;6.50;;
24443;SDS011;13346;50.984;5.822;2024-01-10T13:04:07;8.37;;;7.17;;
24443;SDS011;13346;50.984;5.822;2024-01-10T13:06:37;12.33;;;8.80;;
24443;SDS011;13346;50.984;5.822;2024-01-10T13:09:05;6.57;;;5.90;;
24443;SDS011;13346;50.984;5.822;2024-01-10T13:11:32;11.13;;;8.70;;
24443;SDS011;13346;50.984;5.822;2024-01-10T13:14:01;6.73;;;5.77;;
24443;SDS011;13346;50.984;5.822;2024-01-10T13:16:28;11.47;;;8.37;;
24443;SDS011;13346;50.984;5.822;2024-01-10T13:18:56;6.10;;;3.37;;
24443;SDS011;13346;50.984;5.822;2024-01-10T13:21:24;6.93;;;5.60;;
24443;SDS011;13346;50.984;5.822;2024-01-10T13:23:51;3.73;;;3.40;;
24443;SDS011;13346;50.984;5.822;2024-01-10T13:26:19;7.10;;;3.70;;
24443;SDS011;13346;50.984;5.822;2024-01-10T13:28:46;8.20;;;5.70;;
24443;SDS011;13346;50.984;5.822;2024-01-10T13:31:15;8.30;;;6.97;;
24443;SDS011;13346;50.984;5.822;2024-01-10T13:33:42;6.83;;;6.03;;
24443;SDS011;13346;50.984;5.822;2024-01-10T13:36:10;5.73;;;5.20;;
24443;SDS011;13346;50.984;5.822;2024-01-10T13:38:37;6.27;;;5.10;;
24443;SDS011;13346;50.984;5.822;2024-01-10T13:41:04;9.27;;;6.50;;
24443;SDS011;13346;50.984;5.822;2024-01-10T13:43:32;13.17;;;9.17;;
24443;SDS011;13346;50.984;5.822;2024-01-10T13:45:59;13.33;;;9.13;;
24443;SDS011;13346;50.984;5.822;2024-01-10T13:48:29;5.83;;;4.60;;
24443;SDS011;13346;50.984;5.822;2024-01-10T13:50:57;14.80;;;9.90;;
24443;SDS011;13346;50.984;5.822;2024-01-10T13:53:24;16.83;;;10.43;;
24443;SDS011;13346;50.984;5.822;2024-01-10T13:55:51;13.53;;;9.00;;
24443;SDS011;13346;50.984;5.822;2024-01-10T13:58:18;15.63;;;10.63;;
24443;SDS011;13346;50.984;5.822;2024-01-10T14:00:48;11.87;;;8.37;;
24443;SDS011;13346;50.984;5.822;2024-01-10T14:03:16;13.30;;;9.13;;
24443;SDS011;13346;50.984;5.822;2024-01-10T14:05:44;10.40;;;9.37;;
24443;SDS011;13346;50.984;5.822;2024-01-10T14:08:12;7.13;;;4.80;;
24443;SDS011;13346;50.984;5.822;2024-01-10T14:10:41;10.57;;;6.33;;
24443;SDS011;13346;50.984;5.822;2024-01-10T14:13:08;4.33;;;4.00;;
24443;SDS011;13346;50.984;5.822;2024-01-10T14:15:35;4.90;;;3.07;;
24443;SDS011;13346;50.984;5.822;2024-01-10T14:18:03;11.90;;;8.53;;
24443;SDS011;13346;50.984;5.822;2024-01-10T14:20:30;10.43;;;7.00;;
24443;SDS011;13346;50.984;5.822;2024-01-10T14:23:00;6.67;;;5.03;;
24443;SDS011;13346;50.984;5.822;2024-01-10T14:25:27;15.63;;;9.87;;
24443;SDS011;13346;50.984;5.822;2024-01-10T14:27:55;9.67;;;8.13;;
24443;SDS011;13346;50.984;5.822;2024-01-10T14:30:24;12.97;;;8.43;;
24443;SDS011;13346;50.984;5.822;2024-01-10T14:32:52;15.80;;;10.13;;
24443;SDS011;13346;50.984;5.822;2024-01-10T14:35:19;11.23;;;9.47;;
24443;SDS011;13346;50.984;5.822;2024-01-10T14:37:46;11.23;;;8.90;;
24443;SDS011;13346;50.984;5.822;2024-01-10T14:40:15;14.27;;;9.47;;
24443;SDS011;13346;50.984;5.822;2024-01-10T14:42:42;12.80;;;9.00;;
24443;SDS011;13346;50.984;5.822;2024-01-10T14:45:11;14.90;;;8.17;;
24443;SDS011;13346;50.984;5.822;2024-01-10T14:47:38;9.27;;;6.03;;
24443;SDS011;13346;50.984;5.822;2024-01-10T14:50:06;12.93;;;8.80;;
24443;SDS011;13346;50.984;5.822;2024-01-10T14:52:33;17.77;;;10.87;;
24443;SDS011;13346;50.984;5.822;2024-01-10T14:55:00;17.87;;;9.30;;
24443;SDS011;13346;50.984;5.822;2024-01-10T14:57:31;16.27;;;11.37;;
24443;SDS011;13346;50.984;5.822;2024-01-10T14:59:59;16.37;;;10.73;;
24443;SDS011;13346;50.984;5.822;2024-01-10T15:02:26;14.17;;;10.70;;